Time;durP1;ratioP1;P1;durP2;ratioP2;P2;SDS_P1;SDS_P2;PMS_P1;PMS_P2;Temp;Humidity;BMP_temperature;BMP_pressure;BME280_temperature;BME280_humidity;BME280_pressure;Samples;Min_cycle;Max_cycle;Signal;HPM_P1;HPM_P2
2022/06/26 00:01:21;;;;;;;26.42;23.70;;;22.80;99.90;;;;;;5034275;28;20204;-75
2022/06/26 00:03:47;;;;;;;25.52;22.90;;;22.80;99.90;;;;;;5036823;28;20706;-75
2022/06/26 00:06:12;;;;;;;24.92;22.38;;;22.80;99.90;;;;;;5033983;28;20212;-75
2022/06/26 00:08:38;;;;;;;27.25;23.45;;;22.90;99.90;;;;;;5033707;28;20225;-75
2022/06/26 00:11:04;;;;;;;24.35;21.70;;;22.90;99.90;;;;;;5034069;28;20204;-75
2022/06/26 00:13:29;;;;;;;25.60;22.98;;;22.90;99.90;;;;;;5042596;28;20719;-75
2022/06/26 00:15:55;;;;;;;25.98;23.35;;;22.80;99.90;;;;;;5034498;28;20192;-75
2022/06/26 00:18:21;;;;;;;28.48;25.60;;;22.90;99.90;;;;;;5035501;28;20636;-75
2022/06/26 00:20:46;;;;;;;24.55;22.13;;;22.80;99.90;;;;;;5038258;28;20196;-75
2022/06/26 00:23:12;;;;;;;22.77;20.45;;;22.80;99.90;;;;;;5047190;28;20217;-75
2022/06/26 00:25:38;;;;;;;21.17;18.90;;;22.80;99.90;;;;;;5032126;28;20270;-75
2022/06/26 00:28:04;;;;;;;20.00;17.75;;;22.80;99.90;;;;;;5032034;28;20583;-74
2022/06/26 00:30:29;;;;;;;21.67;19.40;;;22.80;99.90;;;;;;5036272;28;20183;-76
2022/06/26 00:32:55;;;;;;;20.25;18.27;;;22.80;99.90;;;;;;5058253;28;20205;-75
2022/06/26 00:35:21;;;;;;;19.52;17.63;;;22.80;99.90;;;;;;5058051;28;20271;-76
2022/06/26 00:37:46;;;;;;;20.60;18.50;;;22.80;99.90;;;;;;5039530;28;20212;-75
2022/06/26 00:40:12;;;;;;;19.58;17.75;;;22.80;99.90;;;;;;5032785;28;20319;-75
2022/06/26 00:42:38;;;;;;;19.23;17.23;;;22.80;99.90;;;;;;5033323;28;20215;-76
2022/06/26 00:45:04;;;;;;;19.27;17.40;;;22.80;99.90;;;;;;5032992;28;20240;-75
2022/06/26 00:47:31;;;;;;;18.65;16.85;;;22.80;99.90;;;;;;5032363;28;20752;-75
2022/06/26 00:49:56;;;;;;;18.90;17.10;;;22.80;99.90;;;;;;5032471;28;20218;-75
2022/06/26 00:52:23;;;;;;;18.63;16.63;;;22.80;99.90;;;;;;5032626;28;20724;-75
2022/06/26 00:54:50;;;;;;;25.15;22.55;;;22.80;99.90;;;;;;5033160;28;20354;-75
2022/06/26 00:57:16;;;;;;;19.13;17.27;;;22.70;99.90;;;;;;5032496;28;20315;-75
2022/06/26 00:59:42;;;;;;;18.00;16.30;;;22.70;99.90;;;;;;5029328;28;20319;-75
2022/06/26 01:02:08;;;;;;;18.02;16.27;;;22.70;99.90;;;;;;5030206;28;20712;-75
2022/06/26 01:04:34;;;;;;;19.45;17.58;;;22.70;99.90;;;;;;5031325;28;20254;-75
2022/06/26 01:07:00;;;;;;;18.80;17.08;;;22.70;99.90;;;;;;5032153;28;20200;-75
2022/06/26 01:09:25;;;;;;;19.25;17.25;;;22.70;99.90;;;;;;5032462;28;20461;-75
2022/06/26 01:11:51;;;;;;;17.98;16.27;;;22.70;99.90;;;;;;5032469;28;20208;-75
2022/06/26 01:14:17;;;;;;;19.27;17.38;;;22.60;99.90;;;;;;5032410;28;20219;-75
2022/06/26 01:16:43;;;;;;;19.98;18.08;;;22.60;99.90;;;;;;5030802;28;20291;-75
2022/06/26 01:19:10;;;;;;;18.80;17.10;;;22.60;99.90;;;;;;5032435;28;20183;-75
2022/06/26 01:21:36;;;;;;;19.15;17.30;;;22.60;99.90;;;;;;5032923;28;20256;-75
2022/06/26 01:24:03;;;;;;;19.75;17.70;;;22.60;99.90;;;;;;5032268;28;20208;-75
2022/06/26 01:26:31;;;;;;;18.83;16.88;;;22.50;99.90;;;;;;5031746;28;20235;-75
2022/06/26 01:28:56;;;;;;;17.98;16.33;;;22.60;99.90;;;;;;5031958;28;20208;-75
2022/06/26 01:31:22;;;;;;;20.52;18.45;;;22.60;99.90;;;;;;5032180;28;20270;-75
2022/06/26 01:33:49;;;;;;;18.85;16.80;;;22.60;99.90;;;;;;5032796;28;20207;-76
2022/06/26 01:36:15;;;;;;;20.67;18.02;;;22.60;99.90;;;;;;5032039;28;20208;-76
2022/06/26 01:38:40;;;;;;;19.02;17.02;;;22.60;99.90;;;;;;5031629;28;20216;-75
2022/06/26 01:41:06;;;;;;;18.33;16.42;;;22.50;99.90;;;;;;5031745;28;20215;-76
2022/06/26 01:43:35;;;;;;;18.38;16.58;;;22.50;99.90;;;;;;5030345;28;20207;-75
2022/06/26 01:46:02;;;;;;;19.65;17.67;;;22.50;99.90;;;;;;5031868;28;20326;-75
2022/06/26 01:48:29;;;;;;;20.45;18.35;;;22.40;99.90;;;;;;5032238;28;20208;-75
2022/06/26 01:50:56;;;;;;;19.25;17.48;;;22.30;99.90;;;;;;5030894;28;20215;-75
2022/06/26 01:53:22;;;;;;;20.70;18.55;;;22.30;99.90;;;;;;5032025;28;20212;-76
2022/06/26 01:55:48;;;;;;;20.63;18.63;;;22.30;99.90;;;;;;5030268;28;20212;-76
2022/06/26 01:58:14;;;;;;;20.83;18.83;;;22.40;99.90;;;;;;5030958;28;20231;-75
2022/06/26 02:00:41;;;;;;;20.23;18.23;;;22.40;99.90;;;;;;5031701;28;20176;-75
2022/06/26 02:03:08;;;;;;;21.58;19.42;;;22.30;99.90;;;;;;5031835;28;20740;-76
2022/06/26 02:05:34;;;;;;;21.52;19.52;;;22.30;99.90;;;;;;5031567;28;20215;-75
2022/06/26 02:08:00;;;;;;;20.92;18.92;;;22.20;99.90;;;;;;5031367;28;20768;-75
2022/06/26 02:15:56;;;;;;;19.80;17.88;;;22.20;99.90;;;;;;5025001;28;20184;-74
2022/06/26 02:18:22;;;;;;;19.83;17.90;;;22.20;99.90;;;;;;5031467;28;20205;-74
2022/06/26 02:20:48;;;;;;;21.60;19.52;;;22.10;99.90;;;;;;5031569;28;20211;-74
2022/06/26 02:23:14;;;;;;;20.17;18.23;;;22.10;99.90;;;;;;5031380;28;20215;-74
2022/06/26 02:25:41;;;;;;;21.52;19.42;;;22.00;99.90;;;;;;5031249;28;20200;-74
2022/06/26 02:28:06;;;;;;;20.30;18.20;;;22.00;99.90;;;;;;5030982;28;20703;-74
2022/06/26 02:30:32;;;;;;;20.70;18.70;;;22.00;99.90;;;;;;5031632;28;20255;-74
2022/06/26 02:32:58;;;;;;;22.67;18.83;;;22.00;99.90;;;;;;5030432;28;20239;-74
2022/06/26 02:35:25;;;;;;;20.35;18.45;;;22.00;99.90;;;;;;5032082;28;20220;-73
2022/06/26 02:37:51;;;;;;;21.02;19.15;;;22.10;99.90;;;;;;5033200;28;20216;-75
2022/06/26 02:40:19;;;;;;;21.55;19.55;;;22.10;99.90;;;;;;5032005;28;20208;-74
2022/06/26 02:42:45;;;;;;;22.33;19.98;;;22.10;99.90;;;;;;5033147;28;20196;-74
2022/06/26 02:45:11;;;;;;;23.05;20.90;;;22.10;99.90;;;;;;5034989;28;20218;-74
2022/06/26 02:47:36;;;;;;;21.52;19.40;;;22.10;99.90;;;;;;5040578;28;20298;-74
2022/06/26 02:50:03;;;;;;;22.27;19.92;;;22.10;99.90;;;;;;5040103;28;20223;-74
2022/06/26 02:52:29;;;;;;;21.90;19.83;;;22.10;99.90;;;;;;5039206;28;20204;-74
2022/06/26 02:54:55;;;;;;;20.80;18.90;;;22.10;99.90;;;;;;5042647;28;20693;-74
2022/06/26 02:57:20;;;;;;;22.48;20.27;;;22.20;99.90;;;;;;5043573;28;20211;-74
2022/06/26 02:59:46;;;;;;;21.70;19.50;;;22.20;99.90;;;;;;5039133;28;20582;-74
2022/06/26 03:02:11;;;;;;;22.17;20.02;;;22.20;99.90;;;;;;5045987;28;20212;-74
2022/06/26 03:04:37;;;;;;;24.65;22.35;;;22.20;99.90;;;;;;5040262;28;20707;-74
2022/06/26 03:07:03;;;;;;;27.63;24.83;;;22.30;99.90;;;;;;5043629;28;20224;-75
2022/06/26 03:09:29;;;;;;;25.35;22.90;;;22.20;99.90;;;;;;5041520;28;20174;-75
2022/06/26 03:11:54;;;;;;;24.55;22.08;;;22.20;99.90;;;;;;5043444;28;20204;-75
2022/06/26 03:14:20;;;;;;;25.05;22.58;;;22.20;99.90;;;;;;5046479;28;20212;-75
2022/06/26 03:16:46;;;;;;;26.15;23.75;;;22.10;99.90;;;;;;5046413;28;20208;-74
2022/06/26 03:19:12;;;;;;;27.73;24.77;;;22.20;99.90;;;;;;5047643;28;20208;-74
2022/06/26 03:21:37;;;;;;;28.60;25.90;;;22.20;99.90;;;;;;5051697;28;20187;-75
2022/06/26 03:24:03;;;;;;;27.13;24.33;;;22.30;99.90;;;;;;5056049;28;20219;-74
2022/06/26 03:26:31;;;;;;;26.13;23.63;;;22.50;99.90;;;;;;5043183;28;20298;-75
2022/06/26 03:28:57;;;;;;;25.55;23.05;;;23.40;99.90;;;;;;5040985;28;20258;-74
2022/06/26 03:31:22;;;;;;;24.90;22.45;;;24.00;99.90;;;;;;5041112;28;20295;-74
2022/06/26 03:33:48;;;;;;;23.77;21.27;;;24.60;99.90;;;;;;5046650;28;20294;-74
2022/06/26 03:36:13;;;;;;;21.77;19.77;;;25.20;99.90;;;;;;5045062;28;20677;-75
2022/06/26 03:38:39;;;;;;;22.02;20.02;;;25.60;99.90;;;;;;5043604;28;20598;-75
2022/06/26 03:41:05;;;;;;;22.95;20.48;;;26.00;99.90;;;;;;5043222;28;20748;-75
2022/06/26 03:43:31;;;;;;;21.45;19.35;;;26.00;99.90;;;;;;5042334;28;20212;-75
2022/06/26 03:45:56;;;;;;;20.65;18.75;;;26.40;99.90;;;;;;5044117;28;20216;-74
2022/06/26 03:48:22;;;;;;;20.83;18.85;;;26.70;99.90;;;;;;5047535;28;20211;-74
2022/06/26 03:50:48;;;;;;;20.88;18.88;;;26.90;99.90;;;;;;5053878;28;20208;-74
2022/06/26 03:53:13;;;;;;;19.25;17.45;;;26.30;99.90;;;;;;5058094;28;20204;-75
2022/06/26 03:55:39;;;;;;;17.92;16.33;;;27.40;99.90;;;;;;5051741;28;20223;-75
2022/06/26 03:58:05;;;;;;;19.23;17.42;;;27.50;99.90;;;;;;5052686;28;20218;-75
2022/06/26 04:00:31;;;;;;;26.65;24.05;;;28.40;99.90;;;;;;5044884;28;20262;-75
2022/06/26 04:02:57;;;;;;;26.35;23.77;;;29.20;99.90;;;;;;5042177;28;20208;-75
2022/06/26 04:05:23;;;;;;;28.90;26.08;;;29.60;99.90;;;;;;5042535;28;20578;-75
2022/06/26 04:07:48;;;;;;;33.10;29.90;;;30.20;99.90;;;;;;5045479;28;20239;-75
2022/06/26 04:10:14;;;;;;;30.63;27.83;;;30.20;99.90;;;;;;5045836;28;20222;-76
2022/06/26 04:12:40;;;;;;;34.08;30.83;;;30.90;99.90;;;;;;5045932;28;20645;-75
2022/06/26 04:15:06;;;;;;;31.90;29.10;;;31.80;99.90;;;;;;5047087;28;20251;-76
2022/06/26 04:17:32;;;;;;;29.27;26.50;;;31.80;99.90;;;;;;5043526;28;20219;-75
2022/06/26 04:19:57;;;;;;;25.20;22.88;;;31.90;99.90;;;;;;5041619;28;20204;-76
2022/06/26 04:22:23;;;;;;;22.65;20.55;;;31.80;99.90;;;;;;5040254;28;20233;-75
2022/06/26 04:24:48;;;;;;;20.95;18.95;;;32.40;99.90;;;;;;5046206;28;20216;-75
2022/06/26 04:27:14;;;;;;;20.15;18.25;;;32.70;99.90;;;;;;5044196;28;20590;-76
2022/06/26 04:29:40;;;;;;;19.80;17.88;;;32.80;99.90;;;;;;5042045;28;20211;-75
2022/06/26 04:32:06;;;;;;;19.25;17.52;;;32.40;99.90;;;;;;5040041;28;20651;-75
2022/06/26 04:34:32;;;;;;;18.40;16.70;;;31.50;99.90;;;;;;5043678;28;20216;-75
2022/06/26 04:36:58;;;;;;;17.58;16.00;;;30.70;99.90;;;;;;5041758;28;20265;-76
2022/06/26 04:39:24;;;;;;;16.13;14.80;;;31.30;99.90;;;;;;5050317;28;20648;-76
2022/06/26 04:41:49;;;;;;;16.35;14.63;;;30.80;99.90;;;;;;5041955;28;20297;-75
2022/06/26 04:44:15;;;;;;;16.92;15.40;;;29.90;99.90;;;;;;5031353;28;20228;-75
2022/06/26 04:46:41;;;;;;;16.65;14.95;;;28.70;99.90;;;;;;5032258;28;20262;-75
2022/06/26 04:49:08;;;;;;;16.05;14.45;;;28.10;99.90;;;;;;5033478;28;20183;-75
2022/06/26 04:51:37;;;;;;;14.63;13.35;;;27.50;99.90;;;;;;5033928;28;20199;-75
2022/06/26 04:54:04;;;;;;;16.08;14.63;;;26.90;99.90;;;;;;5032074;28;20639;-75
2022/06/26 04:56:30;;;;;;;16.95;15.23;;;26.40;99.90;;;;;;5035302;28;20272;-76
2022/06/26 04:58:56;;;;;;;16.75;15.20;;;25.70;99.90;;;;;;5056401;28;20223;-75
2022/06/26 05:01:23;;;;;;;16.95;15.45;;;25.30;99.90;;;;;;5057009;28;20200;-76
2022/06/26 05:03:48;;;;;;;15.93;14.52;;;25.10;99.90;;;;;;5041346;28;20195;-75
2022/06/26 05:06:14;;;;;;;19.40;17.60;;;24.90;99.90;;;;;;5051036;28;20586;-75
2022/06/26 05:08:40;;;;;;;17.55;15.85;;;24.70;99.90;;;;;;5051279;28;20218;-75
2022/06/26 05:11:06;;;;;;;17.70;16.10;;;24.70;99.90;;;;;;5053662;28;20214;-75
2022/06/26 05:13:31;;;;;;;19.70;17.92;;;24.70;99.90;;;;;;5048162;28;20214;-75
2022/06/26 05:15:57;;;;;;;21.52;19.42;;;24.60;99.90;;;;;;5049797;28;20241;-75
2022/06/26 05:18:24;;;;;;;18.38;16.70;;;24.60;99.90;;;;;;5052135;28;20286;-75
2022/06/26 05:20:49;;;;;;;19.42;17.42;;;24.60;99.90;;;;;;5052242;28;20214;-75
2022/06/26 05:23:15;;;;;;;18.95;17.00;;;24.70;99.90;;;;;;5052605;28;20199;-75
2022/06/26 05:25:42;;;;;;;18.45;16.67;;;24.60;99.90;;;;;;5051389;28;20777;-76
2022/06/26 05:28:08;;;;;;;17.38;15.77;;;24.60;99.90;;;;;;5050689;28;20265;-75
2022/06/26 05:30:34;;;;;;;17.60;16.08;;;24.80;99.90;;;;;;5053246;28;20176;-74
2022/06/26 05:33:00;;;;;;;18.20;16.35;;;24.90;99.90;;;;;;5047709;28;20204;-75
2022/06/26 05:35:26;;;;;;;18.35;16.73;;;25.10;99.90;;;;;;5049087;28;20222;-75
2022/06/26 05:37:51;;;;;;;16.52;15.02;;;25.20;99.90;;;;;;5043888;28;20212;-76
2022/06/26 05:40:17;;;;;;;16.95;15.45;;;25.60;99.90;;;;;;5050849;28;20207;-76
2022/06/26 05:42:43;;;;;;;16.98;15.43;;;26.10;99.90;;;;;;5052766;28;20190;-76
2022/06/26 05:45:09;;;;;;;17.83;16.02;;;26.50;99.90;;;;;;5054297;28;20720;-75
2022/06/26 05:47:34;;;;;;;18.38;16.83;;;27.20;99.90;;;;;;5052388;28;20219;-76
2022/06/26 05:50:00;;;;;;;16.40;14.80;;;27.30;99.90;;;;;;5050398;28;20208;-76
2022/06/26 05:52:26;;;;;;;14.98;13.45;;;28.50;99.90;;;;;;5051467;28;20223;-76
2022/06/26 05:54:52;;;;;;;13.30;12.13;;;30.50;99.90;;;;;;5051786;28;20205;-76
2022/06/26 05:59:47;;;;;;;10.93;9.98;;;32.60;99.90;;;;;;5041978;28;20222;-71
2022/06/26 06:02:13;;;;;;;10.52;9.70;;;33.30;99.90;;;;;;5052514;28;20210;-70
2022/06/26 06:04:39;;;;;;;10.32;9.57;;;33.70;99.90;;;;;;5050970;28;20210;-70
2022/06/26 06:07:05;;;;;;;10.40;9.60;;;34.50;99.90;;;;;;5051301;28;20236;-70
2022/06/26 06:09:31;;;;;;;9.35;8.55;;;36.20;99.90;;;;;;5051449;28;20590;-71
2022/06/26 06:11:57;;;;;;;10.00;9.13;;;35.90;99.90;;;;;;5051062;28;20265;-71
2022/06/26 06:14:23;;;;;;;8.70;7.90;;;35.00;99.90;;;;;;5050837;28;20718;-71
2022/06/26 06:16:48;;;;;;;9.82;8.93;;;33.90;99.90;;;;;;5050925;28;20219;-70
2022/06/26 06:19:14;;;;;;;7.88;7.28;;;33.10;99.90;;;;;;5049255;28;20218;-72
2022/06/26 06:21:39;;;;;;;8.38;7.68;;;32.40;99.90;;;;;;5051300;28;20258;-70
2022/06/26 06:24:05;;;;;;;7.70;7.10;;;32.80;99.90;;;;;;5049693;28;20290;-72
2022/06/26 06:26:31;;;;;;;7.63;6.97;;;32.10;99.90;;;;;;5049185;28;20212;-72
2022/06/26 06:28:56;;;;;;;7.00;6.40;;;30.70;99.90;;;;;;5050651;28;20208;-72
2022/06/26 06:31:22;;;;;;;7.00;6.45;;;30.60;99.90;;;;;;5050785;28;20265;-72
2022/06/26 06:33:48;;;;;;;6.68;6.15;;;30.10;99.90;;;;;;5044183;28;20176;-72
2022/06/26 06:36:13;;;;;;;6.78;6.20;;;30.70;99.90;;;;;;5049533;28;20199;-72
2022/06/26 06:38:39;;;;;;;6.65;6.05;;;30.80;99.90;;;;;;5050533;28;20215;-72
2022/06/26 06:41:05;;;;;;;6.65;6.10;;;31.00;99.90;;;;;;5049531;28;20239;-72
2022/06/26 06:43:30;;;;;;;8.65;6.10;;;32.40;99.90;;;;;;5049375;28;20628;-72
2022/06/26 06:45:56;;;;;;;5.88;5.38;;;33.80;99.90;;;;;;5053321;28;20212;-72
2022/06/26 06:48:24;;;;;;;5.60;5.20;;;33.70;99.90;;;;;;5054792;28;20701;-72
2022/06/26 06:50:51;;;;;;;6.35;5.75;;;34.40;99.90;;;;;;5054949;28;20203;-72
2022/06/26 06:53:17;;;;;;;5.13;4.78;;;34.80;99.90;;;;;;5054646;28;20775;-72
2022/06/26 06:55:43;;;;;;;5.55;5.03;;;35.70;99.90;;;;;;5054393;28;20268;-70
2022/06/26 06:58:09;;;;;;;5.50;5.10;;;36.30;98.80;;;;;;5054119;28;20210;-71
2022/06/26 07:00:34;;;;;;;5.75;5.22;;;36.50;97.30;;;;;;5053774;28;20187;-71
2022/06/26 07:03:01;;;;;;;5.30;4.80;;;36.40;97.70;;;;;;5051396;28;20211;-71
2022/06/26 07:05:27;;;;;;;6.10;5.70;;;36.70;97.00;;;;;;5051889;28;20226;-71
2022/06/26 07:07:52;;;;;;;5.45;4.97;;;36.80;96.10;;;;;;5054484;28;20215;-71
2022/06/26 07:10:18;;;;;;;5.80;5.38;;;36.30;95.70;;;;;;5054097;28;20700;-71
2022/06/26 07:12:54;;;;;;;5.68;5.10;;;35.40;96.90;;;;;;5053509;28;20172;-71
2022/06/26 07:15:20;;;;;;;6.25;5.65;;;34.60;99.80;;;;;;5053347;28;20225;-71
2022/06/26 07:17:46;;;;;;;6.32;5.72;;;34.10;99.90;;;;;;5052631;28;20207;-72
2022/06/26 07:20:12;;;;;;;6.18;5.68;;;34.00;99.90;;;;;;5052665;28;20601;-71
2022/06/26 07:22:37;;;;;;;6.30;5.70;;;33.70;99.90;;;;;;5054180;28;20328;-70
2022/06/26 07:25:03;;;;;;;6.20;5.70;;;33.50;99.90;;;;;;5054090;28;20179;-71
2022/06/26 07:27:29;;;;;;;6.20;5.53;;;34.00;99.90;;;;;;5054296;28;20650;-71
2022/06/26 07:29:54;;;;;;;5.80;5.30;;;34.80;99.90;;;;;;5053833;28;20213;-71
2022/06/26 07:32:20;;;;;;;6.32;5.93;;;35.40;99.80;;;;;;5054107;28;20567;-71
2022/06/26 07:34:46;;;;;;;6.30;5.70;;;35.40;99.10;;;;;;5047836;28;20268;-71
2022/06/26 07:37:11;;;;;;;6.25;5.85;;;36.20;97.70;;;;;;5053949;28;20310;-71
2022/06/26 07:39:37;;;;;;;6.90;6.30;;;37.00;96.40;;;;;;5053825;28;20175;-71
2022/06/26 07:42:04;;;;;;;6.55;6.05;;;37.10;95.60;;;;;;5053778;28;20207;-71
2022/06/26 07:44:30;;;;;;;6.65;6.00;;;36.90;94.50;;;;;;5053620;28;20616;-71
2022/06/26 07:46:57;;;;;;;6.03;5.53;;;36.80;93.80;;;;;;5052384;28;20252;-71
2022/06/26 07:49:23;;;;;;;6.18;5.60;;;37.50;93.60;;;;;;5053046;28;20230;-71
2022/06/26 07:51:49;;;;;;;5.72;5.28;;;37.30;92.40;;;;;;5052713;28;20177;-71
2022/06/26 07:54:15;;;;;;;5.70;5.20;;;36.70;92.40;;;;;;5053717;28;20207;-71
2022/06/26 07:56:41;;;;;;;5.60;5.05;;;36.30;93.60;;;;;;5052450;28;20215;-71
2022/06/26 07:59:07;;;;;;;5.50;5.10;;;36.10;93.20;;;;;;5053050;28;20348;-72
2022/06/26 08:01:32;;;;;;;5.32;4.93;;;36.30;92.90;;;;;;5053273;28;20204;-72
2022/06/26 08:03:58;;;;;;;5.25;4.75;;;36.20;93.00;;;;;;5047487;28;20178;-71
2022/06/26 08:06:24;;;;;;;5.43;4.90;;;36.40;92.70;;;;;;5053211;28;20261;-72
2022/06/26 08:08:50;;;;;;;4.97;4.57;;;36.60;92.20;;;;;;5045361;28;20218;-72
2022/06/26 08:11:16;;;;;;;4.93;4.57;;;36.00;92.40;;;;;;5051867;28;20221;-72
2022/06/26 08:13:41;;;;;;;6.28;4.70;;;36.70;91.90;;;;;;5053128;28;20199;-72
2022/06/26 08:16:07;;;;;;;5.18;4.75;;;36.70;91.90;;;;;;5051992;28;20178;-72
2022/06/26 08:18:33;;;;;;;5.00;4.60;;;35.70;92.00;;;;;;5053003;28;20226;-71
2022/06/26 08:22:00;;;;;;;5.38;4.97;;;34.60;94.20;;;;;;5053184;28;20203;-71
2022/06/26 08:23:44;;;;;;;5.70;5.20;;;33.00;96.50;;;;;;5053034;28;20250;-71
2022/06/26 08:26:09;;;;;;;5.88;5.47;;;33.20;98.70;;;;;;5054069;28;20237;-72
2022/06/26 08:28:37;;;;;;;5.22;4.72;;;33.30;98.60;;;;;;5053075;28;20258;-71
2022/06/26 08:31:03;;;;;;;5.25;4.75;;;33.30;97.90;;;;;;5053268;28;20186;-72
2022/06/26 08:33:28;;;;;;;5.38;4.97;;;32.50;98.90;;;;;;5047347;28;20725;-72
2022/06/26 08:35:54;;;;;;;5.32;4.93;;;32.70;99.90;;;;;;5052674;28;20218;-72
2022/06/26 08:38:19;;;;;;;5.80;5.30;;;32.40;99.90;;;;;;5052330;28;20256;-72
2022/06/26 08:40:46;;;;;;;5.40;4.95;;;31.60;99.90;;;;;;5052660;28;20246;-72
2022/06/26 08:43:13;;;;;;;5.68;4.53;;;31.60;99.90;;;;;;5052785;28;20715;-72
2022/06/26 08:45:43;;;;;;;5.72;5.18;;;31.50;99.90;;;;;;5052934;28;20179;-72
2022/06/26 08:48:12;;;;;;;6.38;5.78;;;32.40;99.90;;;;;;5052098;28;20203;-72
2022/06/26 08:50:38;;;;;;;6.88;6.35;;;32.10;99.90;;;;;;5052441;28;20207;-72
2022/06/26 08:53:05;;;;;;;7.97;6.70;;;31.70;99.90;;;;;;5052390;28;20642;-72
2022/06/26 08:55:31;;;;;;;6.53;5.43;;;31.10;99.90;;;;;;5052258;28;20306;-72
2022/06/26 08:57:57;;;;;;;5.20;4.80;;;32.40;99.90;;;;;;5052235;28;20215;-72
2022/06/26 09:00:23;;;;;;;6.28;4.90;;;33.10;99.10;;;;;;5052735;28;20187;-72
2022/06/26 09:02:48;;;;;;;5.72;4.60;;;33.30;97.40;;;;;;5050646;28;20297;-72
2022/06/26 09:05:14;;;;;;;5.07;4.68;;;33.80;97.60;;;;;;5046749;28;20640;-72
2022/06/26 09:07:45;;;;;;;7.10;6.43;;;33.30;97.50;;;;;;5051928;28;20220;-71
2022/06/26 09:10:11;;;;;;;6.25;5.68;;;33.30;97.40;;;;;;5052164;28;20211;-72
2022/06/26 09:12:36;;;;;;;6.43;5.93;;;33.70;98.20;;;;;;5052462;28;20190;-72
2022/06/26 09:15:03;;;;;;;6.13;5.53;;;34.70;96.90;;;;;;5050763;28;20215;-72
2022/06/26 09:17:29;;;;;;;6.75;6.15;;;34.50;95.50;;;;;;5051722;28;20270;-72
2022/06/26 09:19:55;;;;;;;7.00;6.40;;;33.40;97.10;;;;;;5052023;28;20611;-72
2022/06/26 09:22:22;;;;;;;7.38;5.90;;;33.70;97.40;;;;;;5050475;28;20582;-72
2022/06/26 09:24:56;;;;;;;9.27;8.45;;;32.80;98.90;;;;;;5051149;28;20172;-72
2022/06/26 09:27:22;;;;;;;5.88;5.43;;;33.30;98.60;;;;;;5051972;28;20584;-72
2022/06/26 09:29:53;;;;;;;6.65;6.10;;;33.80;99.00;;;;;;5051537;28;20219;-72
2022/06/26 09:32:21;;;;;;;6.63;6.03;;;33.90;97.80;;;;;;5050526;28;20211;-72
2022/06/26 09:34:49;;;;;;;6.38;5.78;;;33.90;98.10;;;;;;5044375;28;20723;-72
2022/06/26 09:37:15;;;;;;;6.95;6.43;;;33.30;98.60;;;;;;5051738;28;20226;-72
2022/06/26 09:39:42;;;;;;;6.90;6.40;;;32.80;99.30;;;;;;5052045;28;20179;-72
2022/06/26 09:42:19;;;;;;;6.53;5.93;;;32.30;99.90;;;;;;5051865;28;20207;-72
2022/06/26 09:44:48;;;;;;;6.55;5.90;;;31.90;99.90;;;;;;5051216;28;20203;-72
2022/06/26 09:47:27;;;;;;;6.72;6.10;;;32.10;99.90;;;;;;5050128;28;20298;-73
2022/06/26 09:49:54;;;;;;;6.82;6.28;;;32.40;99.90;;;;;;5035390;28;20272;-72
2022/06/26 09:52:23;;;;;;;7.53;6.68;;;31.80;99.90;;;;;;5050122;28;20203;-72
2022/06/26 09:54:50;;;;;;;8.70;7.93;;;30.90;99.90;;;;;;5036284;28;20203;-71
2022/06/26 09:57:16;;;;;;;8.23;7.15;;;30.60;99.90;;;;;;5051288;28;20204;-71
2022/06/26 09:59:41;;;;;;;6.95;6.35;;;30.60;99.90;;;;;;5050571;28;20222;-71
2022/06/26 10:07:49;;;;;;;7.50;6.80;;;30.30;99.90;;;;;;5051109;28;20633;-72
2022/06/26 10:10:17;;;;;;;7.25;6.55;;;30.10;99.90;;;;;;5051043;28;20234;-71
2022/06/26 10:12:44;;;;;;;7.25;6.65;;;29.90;99.90;;;;;;5051528;28;20187;-71
2022/06/26 10:15:12;;;;;;;6.82;6.30;;;29.90;99.90;;;;;;5051098;28;20219;-72
2022/06/26 10:18:08;;;;;;;7.82;7.18;;;29.90;99.90;;;;;;5051494;28;20211;-72
2022/06/26 10:20:36;;;;;;;7.50;6.90;;;30.00;99.90;;;;;;5050261;28;20294;-72
2022/06/26 10:23:02;;;;;;;7.00;6.38;;;30.20;99.90;;;;;;5047472;28;20725;-72
2022/06/26 10:25:29;;;;;;;7.10;6.40;;;30.10;99.90;;;;;;5053106;28;20204;-72
2022/06/26 10:27:56;;;;;;;7.50;6.80;;;30.30;99.90;;;;;;5053163;28;20200;-71
2022/06/26 10:30:24;;;;;;;7.30;6.70;;;30.10;99.90;;;;;;5052952;28;20644;-71
2022/06/26 10:33:11;;;;;;;6.32;5.82;;;30.10;99.90;;;;;;5049163;28;20203;-71
2022/06/26 10:35:41;;;;;;;6.95;6.25;;;30.40;99.90;;;;;;5051327;28;20207;-72
2022/06/26 10:38:24;;;;;;;6.60;5.97;;;30.50;99.90;;;;;;5051955;28;20243;-72
2022/06/26 10:44:01;;;;;;;5.68;5.22;;;30.40;99.90;;;;;;5053584;28;20718;-72
2022/06/26 10:46:39;;;;;;;7.55;6.32;;;30.60;99.90;;;;;;5051831;28;20207;-72
2022/06/26 10:49:07;;;;;;;5.90;5.35;;;31.00;99.90;;;;;;5052393;28;20202;-72
2022/06/26 10:51:37;;;;;;;6.93;5.35;;;31.70;99.90;;;;;;5054837;28;20172;-72
2022/06/26 10:54:03;;;;;;;5.28;4.78;;;32.10;99.90;;;;;;5054282;28;20245;-72
2022/06/26 10:56:29;;;;;;;6.00;5.50;;;32.10;99.90;;;;;;5053061;28;20208;-72
2022/06/26 10:59:01;;;;;;;5.38;4.90;;;31.80;99.90;;;;;;5051197;28;20220;-72
2022/06/26 11:01:27;;;;;;;7.68;5.72;;;31.60;99.90;;;;;;5050911;28;20283;-72
2022/06/26 11:03:53;;;;;;;6.30;5.63;;;31.70;99.90;;;;;;5043304;28;20184;-72
2022/06/26 11:06:19;;;;;;;5.38;4.97;;;31.60;99.90;;;;;;5051414;28;20660;-72
2022/06/26 11:08:49;;;;;;;6.40;4.68;;;31.20;99.90;;;;;;5051765;28;20215;-73
2022/06/26 11:11:20;;;;;;;6.38;5.78;;;31.10;99.90;;;;;;5050098;28;20214;-70
2022/06/26 11:13:52;;;;;;;7.30;6.70;;;30.90;99.90;;;;;;5051362;28;20203;-71
2022/06/26 11:16:27;;;;;;;6.10;5.60;;;30.80;99.90;;;;;;5050186;28;20265;-71
2022/06/26 11:18:52;;;;;;;8.00;7.22;;;30.80;99.90;;;;;;5036341;28;20206;-72
2022/06/26 11:21:18;;;;;;;6.95;6.35;;;30.90;99.90;;;;;;5051398;28;20180;-73
2022/06/26 11:23:44;;;;;;;5.82;5.38;;;31.00;99.90;;;;;;5050525;28;20203;-73
2022/06/26 11:26:14;;;;;;;6.35;5.75;;;31.10;99.90;;;;;;5050549;28;20585;-72
2022/06/26 11:28:44;;;;;;;6.22;5.65;;;31.60;99.90;;;;;;5048844;28;20214;-72
2022/06/26 11:31:20;;;;;;;5.43;4.93;;;31.80;99.90;;;;;;5050670;28;20216;-73
2022/06/26 11:33:46;;;;;;;5.70;5.22;;;32.10;99.90;;;;;;5032416;28;20531;-72
2022/06/26 11:36:15;;;;;;;12.43;7.90;;;32.00;99.90;;;;;;5054950;28;20226;-72
2022/06/26 11:38:48;;;;;;;7.10;6.50;;;32.60;99.90;;;;;;5053106;28;20265;-72
2022/06/26 11:41:14;;;;;;;7.78;5.38;;;33.00;99.90;;;;;;5054593;28;20214;-72
2022/06/26 11:43:48;;;;;;;5.15;4.65;;;32.40;99.90;;;;;;5055307;28;20736;-72
2022/06/26 11:46:14;;;;;;;5.10;4.68;;;31.80;99.90;;;;;;5053446;28;20207;-72
2022/06/26 11:48:40;;;;;;;5.30;4.80;;;31.60;99.90;;;;;;5053795;28;20199;-72
2022/06/26 11:51:05;;;;;;;5.70;4.28;;;32.00;99.90;;;;;;5045422;28;20203;-72
2022/06/26 11:53:32;;;;;;;4.93;4.53;;;32.20;99.90;;;;;;5052721;28;20599;-71
2022/06/26 11:56:01;;;;;;;5.25;4.80;;;32.00;99.90;;;;;;5053844;28;20281;-72
2022/06/26 12:01:12;;;;;;;4.63;4.30;;;32.20;99.90;;;;;;5048829;28;20230;-74
2022/06/26 12:03:47;;;;;;;5.88;5.38;;;32.10;99.90;;;;;;5053964;28;20264;-74
2022/06/26 12:06:24;;;;;;;4.85;4.43;;;32.00;99.60;;;;;;5053824;28;20711;-74
2022/06/26 12:08:50;;;;;;;5.25;4.75;;;32.10;99.90;;;;;;5053627;28;20219;-74
2022/06/26 12:11:16;;;;;;;5.40;4.93;;;31.90;99.90;;;;;;5053943;28;20203;-74
2022/06/26 12:13:43;;;;;;;5.45;5.05;;;31.20;99.90;;;;;;5052704;28;20210;-74
2022/06/26 12:16:11;;;;;;;5.55;5.05;;;31.30;99.90;;;;;;5054141;28;20231;-74
2022/06/26 12:18:38;;;;;;;5.47;5.07;;;31.30;99.90;;;;;;5053110;28;20271;-74
2022/06/26 12:21:20;;;;;;;5.80;5.25;;;31.20;99.90;;;;;;5054373;28;20231;-74
2022/06/26 12:23:48;;;;;;;5.65;5.25;;;31.20;99.90;;;;;;5037871;28;20706;-74
2022/06/26 12:26:20;;;;;;;5.65;5.25;;;31.30;99.90;;;;;;5053990;28;20204;-74
2022/06/26 12:28:51;;;;;;;5.65;5.25;;;31.60;99.90;;;;;;5053993;28;20210;-74
2022/06/26 12:31:19;;;;;;;6.13;5.63;;;31.30;99.90;;;;;;5054109;28;20215;-74
2022/06/26 12:33:46;;;;;;;6.10;5.63;;;31.40;99.90;;;;;;5048256;28;20622;-74
2022/06/26 12:36:12;;;;;;;5.97;5.18;;;31.30;99.90;;;;;;5053810;28;20218;-74
2022/06/26 12:38:38;;;;;;;6.30;5.80;;;31.30;99.90;;;;;;5052813;28;20228;-74
2022/06/26 12:41:05;;;;;;;6.20;5.70;;;31.20;99.90;;;;;;5053314;28;20750;-74
2022/06/26 12:43:32;;;;;;;5.80;5.30;;;31.10;99.90;;;;;;5053003;28;20680;-75
2022/06/26 12:45:57;;;;;;;6.10;5.60;;;31.30;99.90;;;;;;5053703;28;20677;-74
2022/06/26 12:48:24;;;;;;;5.93;5.38;;;31.40;99.90;;;;;;5053617;28;20187;-74
2022/06/26 12:50:50;;;;;;;6.10;5.50;;;31.70;99.90;;;;;;5053205;28;20291;-74
2022/06/26 12:53:16;;;;;;;6.15;5.65;;;31.50;99.90;;;;;;5053736;28;20253;-74
2022/06/26 12:55:41;;;;;;;7.40;6.80;;;31.40;99.90;;;;;;5053314;28;20211;-74